Time;durP1;ratioP1;P1;durP2;ratioP2;P2;SDS_P1;SDS_P2;PMS_P1;PMS_P2;Temp;Humidity;BMP_temperature;BMP_pressure;BME280_temperature;BME280_humidity;BME280_pressure;Samples;Min_cycle;Max_cycle;Signal;HPM_P1;HPM_P2
2022/04/30 00:00:18;;;;;;;14.70;13.70;;;11.20;18.10;;;;;;5072602;28;20455;-75
2022/04/30 00:02:43;;;;;;;14.47;13.47;;;11.30;18.10;;;;;;5072438;28;20487;-77
2022/04/30 00:05:10;;;;;;;16.23;14.93;;;11.30;17.90;;;;;;5072041;28;20413;-77
2022/04/30 00:07:35;;;;;;;15.77;14.77;;;11.30;18.10;;;;;;5072661;28;20706;-76
2022/04/30 00:10:02;;;;;;;15.80;14.90;;;11.30;17.60;;;;;;5072303;28;20521;-75
2022/04/30 00:12:28;;;;;;;14.60;13.70;;;11.30;17.80;;;;;;5072929;28;20973;-77
2022/04/30 00:14:54;;;;;;;14.70;13.83;;;11.30;18.00;;;;;;5072974;28;20470;-75
2022/04/30 00:17:20;;;;;;;14.37;13.17;;;11.40;18.20;;;;;;5071149;28;20475;-75
2022/04/30 00:19:45;;;;;;;14.00;13.20;;;11.30;18.40;;;;;;5072281;28;20509;-76
2022/04/30 00:22:11;;;;;;;14.60;13.30;;;11.20;19.20;;;;;;5070842;28;20711;-77
2022/04/30 00:24:38;;;;;;;19.37;13.00;;;11.20;19.20;;;;;;5072470;28;20195;-77
2022/04/30 00:27:04;;;;;;;13.50;12.47;;;11.20;19.20;;;;;;5073167;28;20182;-77
2022/04/30 00:29:29;;;;;;;13.17;12.17;;;11.20;19.60;;;;;;5072427;28;20830;-77
2022/04/30 00:31:56;;;;;;;13.03;12.10;;;11.00;19.90;;;;;;5072039;28;20543;-75
2022/04/30 00:34:22;;;;;;;13.17;12.10;;;11.00;20.20;;;;;;5072584;28;20201;-77
2022/04/30 00:36:47;;;;;;;13.80;12.80;;;11.10;20.50;;;;;;5072256;28;20405;-77
2022/04/30 00:39:13;;;;;;;14.43;13.53;;;11.10;20.40;;;;;;5072728;28;20980;-76
2022/04/30 00:41:46;;;;;;;15.00;14.00;;;11.10;20.30;;;;;;5072620;28;20622;-76
2022/04/30 00:44:18;;;;;;;13.40;12.60;;;11.10;20.20;;;;;;5073170;28;20415;-77
2022/04/30 00:46:43;;;;;;;13.60;12.37;;;11.10;20.00;;;;;;5073252;28;20451;-77
2022/04/30 00:49:09;;;;;;;15.60;13.97;;;11.10;19.50;;;;;;5072448;28;20918;-76
2022/04/30 00:51:37;;;;;;;14.00;13.10;;;11.10;19.50;;;;;;5072449;28;20565;-76
2022/04/30 00:54:05;;;;;;;14.93;13.83;;;11.10;19.60;;;;;;5072966;28;20543;-77
2022/04/30 00:56:49;;;;;;;13.87;13.07;;;11.00;19.60;;;;;;5072486;28;20418;-77
2022/04/30 00:59:19;;;;;;;14.47;13.47;;;11.00;19.00;;;;;;5072562;28;20758;-75
2022/04/30 01:01:47;;;;;;;14.23;13.30;;;11.10;19.10;;;;;;5073466;28;20483;-77
2022/04/30 01:04:14;;;;;;;14.30;13.30;;;11.10;19.10;;;;;;5071512;28;20917;-76
2022/04/30 01:06:57;;;;;;;14.70;13.80;;;11.10;19.10;;;;;;5071765;28;20424;-76
2022/04/30 01:09:31;;;;;;;18.83;14.27;;;11.10;19.10;;;;;;5071539;28;20418;-76
2022/04/30 01:12:03;;;;;;;12.90;12.00;;;11.10;19.10;;;;;;5074099;28;20577;-74
2022/04/30 01:14:31;;;;;;;14.73;13.60;;;11.10;19.10;;;;;;5074574;28;20462;-76
2022/04/30 01:16:57;;;;;;;14.63;13.80;;;11.10;19.10;;;;;;5076565;28;20420;-75
2022/04/30 01:19:24;;;;;;;13.97;13.07;;;11.10;19.10;;;;;;5077092;28;20417;-77
2022/04/30 01:21:59;;;;;;;13.47;12.60;;;11.10;19.10;;;;;;5076717;28;20498;-76
2022/04/30 01:24:26;;;;;;;13.87;12.63;;;11.10;19.20;;;;;;5077772;28;20416;-75
2022/04/30 01:26:53;;;;;;;13.00;12.20;;;10.90;20.10;;;;;;5077407;28;20501;-75
2022/04/30 01:29:20;;;;;;;13.70;12.70;;;10.90;19.90;;;;;;5075241;28;20440;-75
2022/04/30 01:37:24;;;;;;;15.43;14.03;;;11.00;19.70;;;;;;5074839;28;20405;-76
2022/04/30 01:40:03;;;;;;;15.57;14.27;;;11.00;20.60;;;;;;5077030;28;20473;-76
2022/04/30 01:42:35;;;;;;;14.10;12.93;;;11.00;21.00;;;;;;5077998;28;20468;-76
2022/04/30 01:45:04;;;;;;;15.33;14.13;;;11.00;20.70;;;;;;5076059;28;20414;-75
2022/04/30 01:47:30;;;;;;;12.80;11.90;;;11.00;20.70;;;;;;5075195;28;20478;-76
2022/04/30 01:49:56;;;;;;;13.80;12.90;;;11.00;20.80;;;;;;5074591;28;20839;-76
2022/04/30 01:52:22;;;;;;;13.10;11.97;;;11.00;20.90;;;;;;5074442;28;20599;-75
2022/04/30 01:54:47;;;;;;;13.50;12.50;;;11.00;20.90;;;;;;5074265;28;20235;-76
2022/04/30 01:57:15;;;;;;;13.43;12.43;;;11.00;21.10;;;;;;5074160;28;20178;-75
2022/04/30 01:59:41;;;;;;;12.50;11.37;;;11.00;21.00;;;;;;5072912;28;20215;-75
2022/04/30 02:02:07;;;;;;;13.23;12.20;;;10.90;21.40;;;;;;5096257;22;20493;-69
2022/04/30 02:04:34;;;;;;;13.40;12.17;;;10.80;21.70;;;;;;5073912;28;20203;-70
2022/04/30 02:07:01;;;;;;;14.90;13.67;;;10.80;21.90;;;;;;5074343;28;20293;-70
2022/04/30 02:09:28;;;;;;;12.10;11.30;;;10.80;21.80;;;;;;5072593;28;21002;-70
2022/04/30 02:12:01;;;;;;;12.90;11.80;;;10.90;22.00;;;;;;5073745;28;20484;-70
2022/04/30 02:14:30;;;;;;;13.70;12.53;;;10.90;22.10;;;;;;5074150;28;20484;-71
2022/04/30 02:16:58;;;;;;;14.37;13.23;;;10.90;22.20;;;;;;5073648;28;20779;-70
2022/04/30 02:19:28;;;;;;;12.47;11.20;;;10.90;22.20;;;;;;5073788;28;21031;-71
2022/04/30 02:21:57;;;;;;;12.90;11.90;;;10.80;22.20;;;;;;5073388;28;20428;-71
2022/04/30 02:24:28;;;;;;;14.17;13.07;;;10.90;22.10;;;;;;5073516;28;20934;-71
2022/04/30 02:26:54;;;;;;;13.70;12.57;;;10.90;22.30;;;;;;5073478;28;20415;-69
2022/04/30 02:29:20;;;;;;;11.80;10.90;;;10.90;22.60;;;;;;5073191;28;20885;-71
2022/04/30 02:31:47;;;;;;;11.40;10.50;;;10.70;23.10;;;;;;5073199;28;20488;-71
2022/04/30 02:34:12;;;;;;;12.97;11.90;;;10.70;22.70;;;;;;5071992;28;20552;-71
2022/04/30 02:36:38;;;;;;;13.67;12.27;;;10.70;23.10;;;;;;5073451;28;20884;-71
2022/04/30 02:39:03;;;;;;;12.87;11.97;;;10.80;23.10;;;;;;5073126;28;20182;-70
2022/04/30 02:41:29;;;;;;;13.70;12.40;;;10.80;23.10;;;;;;5073133;28;20174;-70
2022/04/30 02:43:56;;;;;;;11.67;10.77;;;10.80;23.10;;;;;;5073102;28;20178;-70
2022/04/30 02:46:21;;;;;;;14.17;12.97;;;10.80;23.10;;;;;;5072976;28;20586;-70
2022/04/30 02:48:47;;;;;;;13.47;12.43;;;10.90;23.20;;;;;;5072853;28;20413;-70
2022/04/30 02:51:15;;;;;;;11.90;11.10;;;10.90;23.20;;;;;;5073062;28;20222;-70
2022/04/30 02:53:41;;;;;;;14.27;12.80;;;10.90;23.20;;;;;;5072872;28;20414;-71
2022/04/30 02:56:09;;;;;;;13.90;12.80;;;11.00;23.30;;;;;;5072822;28;20463;-70
2022/04/30 03:01:20;;;;;;;13.00;11.67;;;10.90;23.60;;;;;;5073060;28;20416;-71
2022/04/30 03:03:47;;;;;;;11.17;10.23;;;10.90;23.90;;;;;;5072845;28;20429;-71
2022/04/30 03:06:14;;;;;;;11.33;10.33;;;10.90;23.90;;;;;;5072712;28;20421;-70
2022/04/30 03:08:40;;;;;;;12.17;11.17;;;10.90;24.00;;;;;;5072438;28;20427;-71
2022/04/30 03:11:07;;;;;;;12.33;11.27;;;10.90;24.20;;;;;;5072619;28;20977;-70
2022/04/30 03:13:35;;;;;;;13.30;12.30;;;10.90;24.50;;;;;;5072365;28;20500;-70
2022/04/30 03:21:42;;;;;;;13.07;11.23;;;10.90;24.50;;;;;;5072443;28;20515;-70
2022/04/30 03:24:09;;;;;;;14.43;12.93;;;11.00;25.00;;;;;;5072506;28;20420;-71
2022/04/30 03:26:34;;;;;;;13.60;11.20;;;11.00;24.90;;;;;;5072503;28;21025;-70
2022/04/30 03:29:03;;;;;;;11.77;10.87;;;11.00;24.80;;;;;;5072147;28;20452;-71
2022/04/30 03:31:30;;;;;;;14.43;13.23;;;11.00;25.00;;;;;;5072159;28;20658;-71
2022/04/30 03:33:55;;;;;;;14.97;13.47;;;11.00;25.60;;;;;;5072146;28;20408;-70
2022/04/30 03:36:21;;;;;;;12.60;11.27;;;11.00;25.50;;;;;;5072200;28;20483;-71
2022/04/30 03:38:47;;;;;;;19.13;12.03;;;10.90;26.00;;;;;;5071789;28;20184;-71
2022/04/30 03:41:15;;;;;;;11.97;10.87;;;10.90;26.00;;;;;;5072060;28;20288;-71
2022/04/30 03:43:40;;;;;;;11.53;10.63;;;10.90;26.10;;;;;;5072123;28;20169;-70
2022/04/30 03:46:06;;;;;;;15.27;12.20;;;10.90;26.50;;;;;;5071934;28;20953;-70
2022/04/30 03:48:32;;;;;;;10.97;9.97;;;11.00;26.30;;;;;;5071753;28;20183;-71
2022/04/30 03:50:58;;;;;;;12.33;10.97;;;11.00;26.40;;;;;;5072043;28;20248;-70
2022/04/30 03:53:24;;;;;;;13.77;12.37;;;11.10;26.40;;;;;;5072034;28;20198;-70
2022/04/30 03:55:49;;;;;;;12.20;11.20;;;11.10;26.40;;;;;;5071865;28;20477;-71
2022/04/30 03:58:15;;;;;;;13.50;11.63;;;11.10;26.20;;;;;;5071722;28;20205;-71
2022/04/30 04:00:40;;;;;;;12.57;11.40;;;11.00;26.40;;;;;;5071024;28;20195;-70
2022/04/30 04:03:06;;;;;;;14.07;12.77;;;11.10;26.50;;;;;;5071728;28;20206;-71
2022/04/30 04:05:32;;;;;;;11.97;10.87;;;11.10;27.20;;;;;;5071898;28;20188;-70
2022/04/30 04:07:58;;;;;;;15.50;12.87;;;11.00;27.50;;;;;;5071583;28;20179;-71
2022/04/30 04:10:23;;;;;;;14.80;13.07;;;11.10;27.50;;;;;;5070654;28;20216;-70
2022/04/30 04:12:50;;;;;;;14.53;11.60;;;11.30;27.60;;;;;;5070422;28;20449;-70
2022/04/30 04:17:59;;;;;;;15.93;13.70;;;11.50;27.40;;;;;;5071406;28;20935;-71
2022/04/30 04:20:25;;;;;;;17.57;15.63;;;11.60;27.20;;;;;;5071847;28;20410;-71
2022/04/30 04:22:55;;;;;;;16.30;14.80;;;11.60;27.50;;;;;;5070374;28;20250;-70
2022/04/30 04:28:05;;;;;;;18.03;15.63;;;11.70;27.20;;;;;;5071487;28;20417;-70
2022/04/30 04:30:32;;;;;;;17.57;14.60;;;11.70;27.40;;;;;;5071851;28;20498;-71
2022/04/30 04:32:58;;;;;;;15.43;13.90;;;11.80;27.30;;;;;;5071687;28;20209;-70
2022/04/30 04:35:25;;;;;;;20.17;14.23;;;11.70;27.20;;;;;;5071510;28;20969;-69
2022/04/30 04:37:51;;;;;;;19.93;15.80;;;11.80;26.80;;;;;;5069921;28;20422;-70
2022/04/30 04:40:17;;;;;;;15.27;13.70;;;11.80;26.50;;;;;;5071502;28;20872;-71
2022/04/30 04:42:44;;;;;;;20.43;15.17;;;11.80;27.10;;;;;;5071350;28;20439;-70
2022/04/30 04:45:10;;;;;;;18.53;15.73;;;11.80;26.80;;;;;;5070150;28;20484;-69
2022/04/30 04:47:40;;;;;;;20.80;15.57;;;11.80;26.80;;;;;;5071121;28;20415;-70
2022/04/30 04:50:08;;;;;;;15.43;14.13;;;11.80;26.70;;;;;;5071618;28;20499;-70
2022/04/30 04:52:34;;;;;;;15.20;13.53;;;11.80;26.90;;;;;;5075160;28;20935;-70
2022/04/30 04:55:00;;;;;;;14.00;12.70;;;11.80;26.90;;;;;;5075111;28;20457;-71
2022/04/30 04:57:25;;;;;;;16.03;13.57;;;11.90;26.90;;;;;;5074684;28;20414;-71
2022/04/30 04:59:51;;;;;;;15.40;13.80;;;11.90;26.70;;;;;;5075054;28;20386;-71
2022/04/30 05:02:18;;;;;;;13.47;12.17;;;11.90;26.80;;;;;;5075177;28;20369;-71
2022/04/30 05:04:43;;;;;;;18.00;14.70;;;12.00;26.70;;;;;;5074993;28;20178;-70
2022/04/30 05:07:09;;;;;;;17.23;14.20;;;12.10;26.70;;;;;;5074696;28;20427;-70
2022/04/30 05:09:34;;;;;;;18.63;15.17;;;12.20;26.70;;;;;;5074767;28;20214;-70
2022/04/30 05:12:03;;;;;;;15.47;13.97;;;12.20;26.80;;;;;;5074679;28;20212;-70
2022/04/30 05:14:32;;;;;;;17.63;14.30;;;12.20;26.90;;;;;;5074750;28;20211;-70
2022/04/30 05:16:59;;;;;;;16.03;14.43;;;12.20;27.80;;;;;;5074732;28;20411;-70
2022/04/30 05:19:24;;;;;;;15.27;13.80;;;12.20;27.80;;;;;;5074419;28;20412;-71
2022/04/30 05:21:50;;;;;;;12.77;11.57;;;12.20;28.30;;;;;;5074520;28;20760;-71
2022/04/30 05:24:16;;;;;;;13.30;12.10;;;12.20;28.30;;;;;;5074549;28;20185;-70
2022/04/30 05:26:41;;;;;;;16.37;14.77;;;12.20;28.30;;;;;;5074453;28;20174;-70
2022/04/30 05:29:07;;;;;;;16.60;13.87;;;12.20;28.70;;;;;;5074503;28;20408;-70
2022/04/30 05:31:32;;;;;;;14.47;12.23;;;12.00;29.50;;;;;;5074434;28;20189;-71
2022/04/30 05:33:58;;;;;;;16.40;12.97;;;12.00;29.50;;;;;;5074405;28;20226;-71
2022/04/30 05:36:23;;;;;;;17.27;12.47;;;12.00;29.90;;;;;;5073098;28;20208;-71
2022/04/30 05:38:51;;;;;;;14.20;12.80;;;11.90;30.60;;;;;;5074149;28;20291;-69
2022/04/30 05:41:16;;;;;;;14.63;12.50;;;11.90;30.60;;;;;;5074185;28;20540;-70
2022/04/30 05:43:42;;;;;;;14.23;12.80;;;11.90;31.40;;;;;;5073001;28;20412;-70
2022/04/30 05:46:08;;;;;;;12.30;11.03;;;12.00;32.00;;;;;;5074195;28;20419;-70
2022/04/30 05:48:33;;;;;;;16.07;13.53;;;12.00;31.70;;;;;;5073967;28;20212;-70
2022/04/30 05:50:59;;;;;;;20.77;16.03;;;12.00;32.30;;;;;;5074106;28;20186;-71
2022/04/30 05:53:24;;;;;;;19.30;17.23;;;12.10;32.20;;;;;;5074007;28;20564;-70
2022/04/30 05:55:50;;;;;;;24.53;19.30;;;12.10;32.10;;;;;;5074402;28;20198;-70
2022/04/30 05:58:15;;;;;;;17.30;14.33;;;12.20;31.70;;;;;;5073858;28;20197;-72
2022/04/30 06:00:41;;;;;;;16.83;15.03;;;12.20;31.60;;;;;;5074188;28;20233;-71
2022/04/30 06:03:06;;;;;;;13.77;11.93;;;12.20;31.40;;;;;;5073414;28;20217;-72
2022/04/30 06:05:32;;;;;;;16.07;13.53;;;12.30;32.40;;;;;;5074336;28;20277;-71
2022/04/30 06:07:58;;;;;;;15.37;11.70;;;12.30;32.00;;;;;;5072871;28;20258;-70
2022/04/30 06:10:23;;;;;;;14.97;12.50;;;12.40;31.60;;;;;;5074131;28;20181;-72
2022/04/30 06:12:49;;;;;;;22.17;12.80;;;12.40;31.60;;;;;;5073858;28;20292;-70
2022/04/30 06:15:14;;;;;;;13.53;12.17;;;12.30;31.80;;;;;;5073703;28;20351;-70
2022/04/30 06:17:40;;;;;;;18.00;14.37;;;12.30;32.10;;;;;;5073585;28;20183;-70
2022/04/30 06:20:06;;;;;;;15.77;12.13;;;12.30;32.70;;;;;;5073736;28;20174;-71
2022/04/30 06:22:34;;;;;;;19.63;13.17;;;12.30;33.00;;;;;;5073766;28;20192;-70
2022/04/30 06:24:59;;;;;;;14.40;12.03;;;12.30;32.60;;;;;;5073598;28;20502;-71
2022/04/30 06:27:25;;;;;;;18.23;13.63;;;12.40;32.10;;;;;;5073376;28;20850;-70
2022/04/30 06:29:51;;;;;;;15.30;12.90;;;12.40;32.50;;;;;;5073450;28;20552;-70
2022/04/30 06:32:17;;;;;;;19.43;14.30;;;12.40;32.60;;;;;;5073374;28;20557;-69
2022/04/30 06:34:42;;;;;;;26.53;23.87;;;12.50;32.10;;;;;;5073602;28;20218;-71
2022/04/30 06:37:08;;;;;;;16.60;14.90;;;12.50;32.60;;;;;;5073172;28;20239;-70
2022/04/30 06:39:33;;;;;;;15.13;13.53;;;12.50;32.50;;;;;;5073183;28;20648;-70
2022/04/30 06:41:59;;;;;;;18.73;13.63;;;12.60;32.30;;;;;;5073173;28;20205;-70
2022/04/30 06:44:24;;;;;;;21.70;13.47;;;12.60;32.90;;;;;;5071918;28;20746;-70
2022/04/30 06:46:50;;;;;;;19.67;12.97;;;12.70;32.80;;;;;;5071887;28;20234;-72
2022/04/30 06:49:15;;;;;;;13.27;11.60;;;12.70;32.00;;;;;;5072929;28;20377;-70
2022/04/30 06:51:41;;;;;;;14.90;12.30;;;12.70;32.40;;;;;;5073142;28;20202;-70
2022/04/30 06:57:11;;;;;;;13.63;12.13;;;12.90;32.50;;;;;;5073063;28;20261;-72
2022/04/30 06:59:40;;;;;;;15.20;11.80;;;13.00;32.30;;;;;;5072911;28;20443;-71
2022/04/30 07:02:09;;;;;;;16.17;12.63;;;13.10;31.40;;;;;;5071242;28;20464;-71
2022/04/30 07:04:35;;;;;;;18.60;14.17;;;13.20;31.30;;;;;;5072665;28;20417;-72
2022/04/30 07:07:01;;;;;;;14.67;13.20;;;13.30;31.10;;;;;;5071556;28;20511;-72
2022/04/30 07:09:32;;;;;;;15.63;14.13;;;13.40;30.20;;;;;;5072377;28;20512;-72
2022/04/30 07:11:59;;;;;;;15.20;11.97;;;13.40;30.40;;;;;;5072701;28;20194;-71
2022/04/30 07:14:25;;;;;;;18.77;15.10;;;13.40;30.60;;;;;;5071612;28;20821;-72
2022/04/30 07:16:50;;;;;;;20.00;15.83;;;13.60;31.40;;;;;;5072519;28;20420;-71
2022/04/30 07:19:16;;;;;;;16.57;14.77;;;13.70;29.80;;;;;;5072260;28;20170;-72
2022/04/30 07:21:41;;;;;;;19.30;17.10;;;13.80;29.90;;;;;;5072439;28;20198;-70
2022/04/30 07:24:07;;;;;;;14.50;13.00;;;14.00;30.10;;;;;;5072323;28;20239;-70
2022/04/30 07:26:32;;;;;;;14.83;13.17;;;14.10;28.80;;;;;;5072294;28;20567;-71
2022/04/30 07:28:58;;;;;;;14.77;13.27;;;14.00;27.70;;;;;;5072150;28;20171;-71
2022/04/30 07:31:23;;;;;;;16.57;14.97;;;13.80;28.70;;;;;;5072186;28;20568;-70
2022/04/30 07:33:51;;;;;;;14.13;12.87;;;14.00;29.50;;;;;;5072141;28;20174;-70
2022/04/30 07:36:17;;;;;;;13.57;12.33;;;14.10;27.40;;;;;;5070843;28;20212;-70
2022/04/30 07:38:43;;;;;;;12.47;11.33;;;14.20;27.90;;;;;;5071917;28;20401;-71
2022/04/30 07:41:08;;;;;;;17.63;13.77;;;14.20;27.90;;;;;;5070910;28;20421;-70
2022/04/30 07:43:34;;;;;;;15.70;14.07;;;14.30;28.10;;;;;;5072106;28;20198;-71
2022/04/30 07:46:00;;;;;;;15.33;13.87;;;14.20;27.80;;;;;;5072065;28;20538;-71
2022/04/30 07:48:25;;;;;;;15.40;13.77;;;14.10;28.50;;;;;;5071754;28;20228;-70
2022/04/30 07:50:57;;;;;;;18.40;13.17;;;13.90;28.30;;;;;;5070897;28;20189;-70
2022/04/30 07:53:23;;;;;;;22.30;18.33;;;13.90;28.50;;;;;;5071811;28;20250;-71
2022/04/30 07:55:48;;;;;;;19.83;16.10;;;13.90;28.60;;;;;;5071925;28;20460;-71
2022/04/30 07:58:14;;;;;;;18.17;15.90;;;13.90;29.10;;;;;;5071692;28;20425;-70
2022/04/30 08:00:39;;;;;;;31.40;25.10;;;14.00;29.30;;;;;;5071833;28;20205;-70
2022/04/30 08:03:05;;;;;;;17.60;14.17;;;14.10;29.00;;;;;;5093209;22;20222;-73
2022/04/30 08:05:31;;;;;;;18.10;12.47;;;14.10;28.80;;;;;;5071956;28;20239;-76
2022/04/30 08:07:57;;;;;;;15.20;13.60;;;14.10;29.10;;;;;;5071508;28;20174;-73
2022/04/30 08:10:23;;;;;;;14.40;13.00;;;14.20;28.00;;;;;;5071819;28;20411;-74
2022/04/30 08:12:55;;;;;;;16.20;14.33;;;14.30;28.60;;;;;;5071753;28;20242;-73
2022/04/30 08:15:22;;;;;;;14.90;13.13;;;14.10;27.30;;;;;;5071665;28;20464;-73
2022/04/30 08:17:51;;;;;;;19.87;14.33;;;14.20;28.40;;;;;;5070321;28;20548;-72
2022/04/30 08:20:17;;;;;;;14.70;12.70;;;14.20;28.10;;;;;;5071981;28;20774;-73
2022/04/30 08:22:42;;;;;;;15.40;13.90;;;14.30;28.10;;;;;;5071982;28;20459;-73
2022/04/30 08:25:09;;;;;;;15.10;13.80;;;14.30;27.20;;;;;;5072179;28;20182;-73
2022/04/30 08:27:38;;;;;;;15.43;14.03;;;14.40;27.90;;;;;;5075856;28;20202;-73
2022/04/30 08:30:13;;;;;;;15.30;14.00;;;14.50;28.30;;;;;;5075911;28;20408;-73
2022/04/30 08:32:38;;;;;;;21.37;16.30;;;14.60;27.90;;;;;;5075741;28;20432;-74
2022/04/30 08:35:04;;;;;;;16.60;14.70;;;14.70;27.60;;;;;;5075652;28;21022;-74
2022/04/30 08:37:30;;;;;;;14.93;13.63;;;14.90;27.20;;;;;;5075320;28;20182;-74
2022/04/30 08:39:55;;;;;;;22.90;15.73;;;14.60;27.10;;;;;;5075619;28;20496;-74
2022/04/30 08:42:23;;;;;;;14.80;13.00;;;14.20;27.00;;;;;;5074001;28;20196;-74
2022/04/30 08:44:49;;;;;;;15.30;13.90;;;14.60;28.20;;;;;;5075349;28;20184;-74
2022/04/30 08:47:15;;;;;;;17.00;15.27;;;14.80;27.50;;;;;;5073862;28;20496;-73
2022/04/30 08:49:42;;;;;;;17.50;15.70;;;14.80;25.90;;;;;;5075310;28;20419;-74
2022/04/30 08:52:09;;;;;;;15.20;13.73;;;14.10;26.50;;;;;;5073704;28;20229;-73
2022/04/30 08:54:35;;;;;;;17.40;15.57;;;14.00;28.10;;;;;;5073805;28;20469;-74
2022/04/30 08:57:00;;;;;;;14.37;12.97;;;14.10;26.70;;;;;;5075076;28;20410;-74
2022/04/30 08:59:27;;;;;;;17.07;15.47;;;13.80;27.50;;;;;;5073568;28;20313;-74
2022/04/30 09:01:58;;;;;;;13.17;11.83;;;13.60;27.70;;;;;;5075084;28;20211;-75
2022/04/30 09:04:25;;;;;;;13.40;12.20;;;13.80;28.50;;;;;;5075196;28;20465;-75
2022/04/30 09:06:53;;;;;;;18.93;14.90;;;14.10;27.70;;;;;;5075189;28;20822;-75
2022/04/30 09:09:22;;;;;;;15.87;14.30;;;14.10;26.40;;;;;;5075524;28;20479;-74
2022/04/30 09:11:48;;;;;;;13.10;11.77;;;14.00;27.50;;;;;;5073622;28;20958;-74
2022/04/30 09:14:13;;;;;;;13.23;11.87;;;13.70;27.60;;;;;;5074947;28;20418;-73
2022/04/30 09:16:39;;;;;;;17.67;12.77;;;13.70;27.40;;;;;;5073461;28;20190;-73
2022/04/30 09:19:04;;;;;;;14.07;12.73;;;13.60;28.60;;;;;;5074442;28;20228;-73
2022/04/30 09:21:30;;;;;;;16.40;14.57;;;13.70;27.90;;;;;;5074585;28;20178;-73
2022/04/30 09:24:06;;;;;;;13.50;12.30;;;13.80;27.20;;;;;;5073223;28;20610;-74
2022/04/30 09:26:41;;;;;;;14.07;12.73;;;13.60;28.30;;;;;;5073358;28;20188;-74
2022/04/30 09:29:23;;;;;;;14.87;13.23;;;13.10;27.70;;;;;;5077065;28;20947;-73
2022/04/30 09:31:52;;;;;;;12.07;11.00;;;13.00;28.60;;;;;;5075539;28;20503;-72
2022/04/30 09:39:49;;;;;;;14.33;12.93;;;13.30;27.30;;;;;;5074733;28;20411;-72
2022/04/30 09:42:15;;;;;;;12.93;12.07;;;13.60;26.50;;;;;;5074403;28;20435;-72
2022/04/30 09:44:40;;;;;;;13.77;12.57;;;13.80;25.20;;;;;;5073105;28;20432;-73
2022/04/30 09:47:07;;;;;;;12.80;11.50;;;14.10;25.30;;;;;;5074141;28;20650;-72
2022/04/30 09:55:04;;;;;;;11.57;10.77;;;14.10;25.40;;;;;;5074369;28;20478;-74
2022/04/30 09:57:32;;;;;;;13.97;12.60;;;13.70;26.50;;;;;;5073866;28;20422;-74
2022/04/30 09:59:59;;;;;;;13.30;12.30;;;14.00;25.50;;;;;;5074162;28;20798;-74
2022/04/30 10:02:28;;;;;;;11.80;10.90;;;14.20;24.90;;;;;;5073795;28;20539;-74
2022/04/30 10:04:55;;;;;;;12.23;11.30;;;14.00;25.30;;;;;;5072727;28;20428;-74
2022/04/30 10:07:24;;;;;;;11.43;10.53;;;13.70;26.30;;;;;;5072450;28;20697;-74
2022/04/30 10:10:01;;;;;;;11.60;10.60;;;14.10;26.50;;;;;;5073836;28;20428;-73
2022/04/30 10:12:38;;;;;;;11.73;10.83;;;14.20;26.30;;;;;;5072723;28;20441;-74
2022/04/30 10:15:41;;;;;;;10.10;9.40;;;14.50;25.70;;;;;;5073973;28;20516;-74
2022/04/30 10:18:09;;;;;;;12.10;11.20;;;15.00;25.10;;;;;;5073609;28;20542;-74
2022/04/30 10:20:35;;;;;;;12.50;11.70;;;15.50;23.90;;;;;;5073894;28;20415;-74
2022/04/30 10:23:05;;;;;;;13.63;12.73;;;15.20;22.00;;;;;;5073790;28;20443;-74
2022/04/30 10:25:42;;;;;;;13.57;12.43;;;15.30;23.80;;;;;;5073916;28;20420;-74
2022/04/30 10:28:10;;;;;;;13.20;12.40;;;15.90;22.10;;;;;;5072085;28;20430;-73
2022/04/30 10:30:38;;;;;;;13.20;12.50;;;15.10;20.90;;;;;;5073471;28;20746;-73
2022/04/30 10:33:07;;;;;;;12.27;11.60;;;15.10;20.00;;;;;;5073132;28;20428;-73
2022/04/30 10:35:36;;;;;;;13.50;12.70;;;15.90;21.30;;;;;;5073315;28;20467;-74
2022/04/30 10:38:18;;;;;;;14.17;13.27;;;15.90;19.30;;;;;;5071840;28;20925;-73
2022/04/30 10:41:00;;;;;;;13.17;12.27;;;15.60;19.40;;;;;;5073340;28;20922;-73
2022/04/30 10:43:37;;;;;;;13.83;13.13;;;15.60;19.70;;;;;;5073133;28;20440;-74
2022/04/30 10:46:05;;;;;;;14.97;13.97;;;16.20;18.30;;;;;;5073201;28;20443;-73
2022/04/30 10:48:35;;;;;;;13.80;13.10;;;16.50;17.70;;;;;;5071335;28;20428;-74
2022/04/30 10:51:06;;;;;;;14.53;13.67;;;16.70;16.20;;;;;;5073095;28;20418;-74
2022/04/30 10:53:33;;;;;;;13.00;12.30;;;16.50;16.40;;;;;;5072992;28;20752;-73
2022/04/30 10:56:01;;;;;;;13.63;12.77;;;16.70;17.00;;;;;;5072867;28;20464;-73
2022/04/30 10:58:34;;;;;;;12.97;12.23;;;16.10;18.60;;;;;;5072561;28;20986;-73
2022/04/30 11:01:14;;;;;;;13.20;12.60;;;16.00;18.50;;;;;;5072954;28;20413;-74
2022/04/30 11:03:44;;;;;;;13.40;12.40;;;16.40;19.50;;;;;;5072650;28;20455;-74
2022/04/30 11:06:19;;;;;;;14.07;13.27;;;16.80;18.70;;;;;;5072812;28;20428;-74
2022/04/30 11:08:54;;;;;;;12.33;11.47;;;16.10;18.30;;;;;;5072589;28;20447;-74
2022/04/30 11:11:20;;;;;;;12.07;11.37;;;15.20;21.70;;;;;;5072684;28;20425;-74
2022/04/30 11:14:10;;;;;;;11.93;11.20;;;15.20;20.30;;;;;;5072474;28;20849;-74
2022/04/30 11:16:38;;;;;;;12.20;11.50;;;15.20;21.00;;;;;;5072584;28;20188;-73
2022/04/30 11:19:08;;;;;;;11.03;10.43;;;14.40;21.80;;;;;;5072463;28;20436;-74
2022/04/30 11:21:38;;;;;;;11.30;10.50;;;13.60;24.20;;;;;;5072324;28;20400;-73
2022/04/30 11:24:05;;;;;;;9.87;9.30;;;13.60;25.10;;;;;;5072341;28;20405;-73
2022/04/30 11:26:35;;;;;;;10.77;10.07;;;13.40;25.10;;;;;;5072370;28;20406;-74
2022/04/30 11:29:00;;;;;;;10.83;9.83;;;13.70;25.10;;;;;;5072149;28;20478;-75
2022/04/30 11:31:26;;;;;;;11.60;10.80;;;13.90;24.50;;;;;;5072218;28;20409;-75
2022/04/30 11:33:52;;;;;;;10.60;9.90;;;14.10;23.20;;;;;;5072044;28;20629;-74
2022/04/30 11:36:18;;;;;;;9.40;8.80;;;14.20;23.20;;;;;;5070908;28;20213;-74
2022/04/30 11:38:53;;;;;;;10.70;9.90;;;13.90;24.20;;;;;;5071950;28;20174;-74
2022/04/30 11:41:19;;;;;;;9.97;9.20;;;13.80;24.40;;;;;;5072113;28;20166;-74
2022/04/30 11:43:45;;;;;;;11.13;10.43;;;13.60;24.10;;;;;;5071987;28;20961;-74
2022/04/30 11:46:11;;;;;;;11.17;10.40;;;14.00;24.90;;;;;;5073082;28;20174;-74
2022/04/30 11:48:38;;;;;;;10.63;9.93;;;14.20;24.00;;;;;;5071818;28;20675;-75
2022/04/30 11:51:05;;;;;;;22.90;11.37;;;14.60;23.40;;;;;;5072020;28;20182;-75
2022/04/30 11:53:31;;;;;;;10.23;9.63;;;14.10;23.30;;;;;;5071863;28;20441;-74
2022/04/30 11:55:57;;;;;;;10.83;10.13;;;14.30;22.80;;;;;;5071846;28;20815;-74
2022/04/30 11:58:23;;;;;;;12.00;11.10;;;14.50;23.20;;;;;;5071714;28;20573;-74
2022/04/30 12:00:52;;;;;;;12.13;11.33;;;15.00;21.80;;;;;;5070115;28;20180;-74
2022/04/30 12:03:30;;;;;;;11.50;10.80;;;15.30;22.00;;;;;;5071803;28;20235;-75
2022/04/30 12:05:57;;;;;;;11.60;11.07;;;15.70;20.90;;;;;;5072134;28;20952;-75
2022/04/30 12:08:28;;;;;;;13.00;12.07;;;15.90;19.70;;;;;;5071573;28;20499;-74
2022/04/30 12:10:57;;;;;;;13.50;12.80;;;15.90;20.30;;;;;;5071814;28;20406;-75
2022/04/30 12:13:24;;;;;;;13.47;12.37;;;16.40;19.30;;;;;;5071706;28;20489;-75
2022/04/30 12:16:01;;;;;;;14.50;13.50;;;16.20;18.60;;;;;;5071688;28;20871;-75
2022/04/30 12:26:58;;;;;;;13.97;13.30;;;17.90;16.20;;;;;;5072007;28;20466;-74
2022/04/30 12:29:24;;;;;;;14.43;13.73;;;17.90;14.60;;;;;;5071499;28;20407;-74
2022/04/30 12:31:53;;;;;;;13.63;12.80;;;17.60;15.60;;;;;;5071423;28;20432;-74
2022/04/30 12:34:28;;;;;;;13.10;12.30;;;17.50;16.20;;;;;;5071709;28;20944;-74
2022/04/30 12:36:59;;;;;;;13.50;12.70;;;15.80;18.00;;;;;;5071495;28;20939;-74
2022/04/30 12:39:26;;;;;;;12.20;11.40;;;15.00;21.80;;;;;;5071355;28;20423;-74
2022/04/30 12:41:59;;;;;;;11.10;10.40;;;14.60;24.50;;;;;;5070111;28;20477;-74
2022/04/30 12:44:26;;;;;;;10.07;9.33;;;14.10;25.40;;;;;;5070190;28;20416;-74
2022/04/30 12:46:52;;;;;;;9.67;8.80;;;13.60;26.00;;;;;;5071416;28;20924;-74
2022/04/30 12:49:19;;;;;;;8.73;8.03;;;13.50;27.10;;;;;;5071266;28;20408;-74
2022/04/30 12:51:46;;;;;;;12.37;8.07;;;13.20;27.70;;;;;;5071526;28;20174;-73
2022/04/30 12:54:13;;;;;;;9.37;8.57;;;13.00;29.50;;;;;;5071502;28;20502;-74
2022/04/30 12:56:40;;;;;;;8.77;8.07;;;13.20;29.00;;;;;;5072728;28;20411;-73
2022/04/30 12:59:07;;;;;;;8.67;8.00;;;13.40;27.90;;;;;;5071197;28;20409;-74
2022/04/30 13:01:34;;;;;;;9.53;8.73;;;13.30;27.70;;;;;;5071261;28;20415;-73
2022/04/30 13:04:01;;;;;;;9.63;8.63;;;13.30;27.70;;;;;;5071500;28;20435;-73
2022/04/30 13:06:26;;;;;;;9.97;9.27;;;13.00;28.30;;;;;;5071233;28;20768;-74
2022/04/30 13:14:20;;;;;;;9.37;8.63;;;13.80;28.00;;;;;;5074994;28;20411;-74
2022/04/30 13:16:45;;;;;;;10.03;9.10;;;13.90;27.40;;;;;;5074735;28;20847;-74